createdAt,value
2023-02-07T00:04:17.461Z,99852.78
2023-02-07T00:09:20.201Z,99862.50
2023-02-07T00:14:22.703Z,99870.47
2023-02-07T00:19:25.106Z,99874.06
2023-02-07T00:24:27.535Z,99871.22
2023-02-07T00:29:30.251Z,99868.53
2023-02-07T00:34:36.159Z,99874.34
2023-02-07T00:39:40.781Z,99868.22
2023-02-07T00:44:43.221Z,99871.72
2023-02-07T00:49:45.628Z,99874.63
2023-02-07T00:54:48.722Z,99878.25
2023-02-07T00:59:51.190Z,99868.78
2023-02-07T01:04:53.680Z,99880.81
2023-02-07T01:09:56.202Z,99866.31
2023-02-07T01:14:59.740Z,99844.09
2023-02-07T01:20:02.248Z,99838.41
2023-02-07T01:25:06.210Z,99852.16
2023-02-07T01:30:09.377Z,99857.34
2023-02-07T01:35:12.088Z,99860.66
2023-02-07T01:40:14.562Z,99878.84
2023-02-07T01:45:29.611Z,99879.16
2023-02-07T01:50:33.319Z,99904.16
2023-02-07T01:55:40.518Z,99914.34
2023-02-07T02:00:43.963Z,99906.84
2023-02-07T02:05:47.682Z,99897.47
2023-02-07T02:11:28.137Z,99893.50
2023-02-07T02:16:36.733Z,99893.91
2023-02-07T02:22:06.901Z,99888.97
2023-02-07T02:27:40.550Z,99880.63
2023-02-07T02:32:57.495Z,99885.03
2023-02-07T02:38:14.625Z,99893.53
2023-02-07T02:43:46.289Z,99879.06
2023-02-07T02:48:50.164Z,99882.25
2023-02-07T02:53:54.232Z,99874.78
2023-02-07T02:59:20.760Z,99889.75
2023-02-07T03:04:45.613Z,99891.53
2023-02-07T03:10:08.286Z,99897.66
2023-02-07T03:15:31.687Z,99891.78
2023-02-07T03:20:40.554Z,99892.63
2023-02-07T03:25:44.723Z,99896.09
2023-02-07T03:30:50.400Z,99901.13
2023-02-07T03:36:09.762Z,99900.19
2023-02-07T03:41:31.310Z,99906.47
2023-02-07T03:46:38.067Z,99896.53
2023-02-07T03:51:40.536Z,99905.81
2023-02-07T03:56:42.998Z,99905.25
2023-02-07T04:01:45.571Z,99901.94
2023-02-07T04:06:48.278Z,99897.53
2023-02-07T04:11:51.833Z,99893.25
2023-02-07T04:16:54.321Z,99873.06
2023-02-07T04:21:56.766Z,99869.28
2023-02-07T04:26:59.733Z,99876.53
2023-02-07T04:32:03.503Z,99881.06
2023-02-07T04:37:06.139Z,99882.03
2023-02-07T04:42:08.545Z,99877.16
2023-02-07T04:47:11.160Z,99881.25
2023-02-07T04:52:13.562Z,99880.47
2023-02-07T04:57:16.671Z,99875.28
2023-02-07T05:02:19.683Z,99875.75
2023-02-07T05:07:22.265Z,99887.59
2023-02-07T05:12:24.793Z,99868.66
2023-02-07T05:17:27.320Z,99889.63
2023-02-07T05:22:30.025Z,99884.88
2023-02-07T05:27:32.703Z,99885.69
2023-02-07T05:32:53.784Z,99875.66
2023-02-07T05:37:56.555Z,99881.50
2023-02-07T05:42:59.056Z,99903.78
2023-02-07T05:48:01.794Z,99896.69
2023-02-07T05:53:05.271Z,99882.84
2023-02-07T05:58:07.923Z,99887.56
2023-02-07T06:03:10.398Z,99892.69
2023-02-07T06:08:13.454Z,99886.22
2023-02-07T06:13:16.160Z,99882.00
2023-02-07T06:18:19.057Z,99871.34
2023-02-07T06:23:23.173Z,99867.59
2023-02-07T06:28:25.837Z,99865.88
2023-02-07T06:33:28.417Z,99862.44
2023-02-07T06:38:30.893Z,99883.16
2023-02-07T06:43:33.282Z,99892.75
2023-02-07T06:48:35.650Z,99897.88
2023-02-07T06:53:38.093Z,99908.94
2023-02-07T06:58:40.515Z,99911.09
2023-02-07T07:03:42.944Z,99896.47
2023-02-07T07:08:45.551Z,99899.84
2023-02-07T07:13:48.209Z,99908.38
2023-02-07T07:18:50.677Z,99914.88
2023-02-07T07:23:53.187Z,99930.16
2023-02-07T07:28:58.390Z,99926.53
2023-02-07T07:34:00.781Z,99931.44
2023-02-07T07:39:04.393Z,99927.75
2023-02-07T07:44:06.914Z,99931.00
2023-02-07T07:49:09.741Z,99914.97
2023-02-07T07:54:12.418Z,99906.81
2023-02-07T07:59:23.627Z,99917.53
2023-02-07T08:04:26.655Z,99920.25
2023-02-07T08:09:29.160Z,99927.56
2023-02-07T08:14:31.851Z,99939.59
2023-02-07T08:19:34.290Z,99952.78
2023-02-07T08:24:36.818Z,99956.25
2023-02-07T08:29:42.013Z,99968.22
2023-02-07T08:34:45.505Z,99973.50
2023-02-07T08:39:48.399Z,99981.59
2023-02-07T08:44:51.454Z,99995.03
2023-02-07T08:49:53.874Z,100010.06
2023-02-07T08:54:56.356Z,100014.47
2023-02-07T08:59:59.664Z,99997.47
2023-02-07T09:05:02.614Z,99964.56
2023-02-07T09:10:06.953Z,99963.19
2023-02-07T09:15:09.970Z,99956.13
2023-02-07T09:20:12.962Z,99957.75
2023-02-07T09:25:15.507Z,99961.19
2023-02-07T09:30:18.621Z,99969.84
2023-02-07T09:35:21.557Z,99977.72
2023-02-07T09:40:24.421Z,99964.53
2023-02-07T09:45:32.190Z,99975.06
2023-02-07T09:50:55.858Z,99981.31
2023-02-07T09:56:02.803Z,99997.22
2023-02-07T10:01:12.522Z,99993.56
2023-02-07T10:06:22.552Z,99993.13
2023-02-07T10:11:37.253Z,99983.91
2023-02-07T10:17:02.798Z,99976.25
2023-02-07T10:22:23.255Z,99988.44
2023-02-07T10:27:42.464Z,99999.97
2023-02-07T10:32:47.640Z,99996.16
2023-02-07T10:37:54.955Z,99994.06
2023-02-07T10:43:27.814Z,99981.44
2023-02-07T10:48:30.358Z,99997.66
2023-02-07T10:53:55.107Z,99993.09
2023-02-07T10:58:59.483Z,99984.78
2023-02-07T11:04:01.940Z,99986.44
2023-02-07T11:09:21.663Z,99986.72
2023-02-07T11:14:28.100Z,99992.00
2023-02-07T11:19:31.949Z,99989.78
2023-02-07T11:24:37.144Z,99998.41
2023-02-07T11:29:56.517Z,99987.59
2023-02-07T11:35:05.787Z,99980.81
2023-02-07T11:40:21.321Z,99985.34
2023-02-07T11:45:24.657Z,99980.63
2023-02-07T11:50:35.312Z,99980.84
2023-02-07T11:55:42.042Z,99973.03
2023-02-07T12:00:45.275Z,99979.78
2023-02-07T12:05:53.633Z,99978.84
2023-02-07T12:11:01.875Z,99980.09
2023-02-07T12:16:20.770Z,99968.66
2023-02-07T12:21:37.333Z,99967.19
2023-02-07T12:27:00.394Z,99958.13
2023-02-07T12:32:27.236Z,99955.78
2023-02-07T12:37:53.620Z,99956.56
2023-02-07T12:43:27.878Z,99943.19
2023-02-07T12:49:01.967Z,99943.06
2023-02-07T12:54:31.719Z,99931.97
2023-02-07T12:59:57.450Z,99916.69
2023-02-07T13:05:02.913Z,99926.19
2023-02-07T13:10:22.262Z,99921.75
2023-02-07T13:15:27.611Z,99926.09
2023-02-07T13:21:12.068Z,99932.13
2023-02-07T13:26:17.395Z,99925.09
2023-02-07T13:31:42.215Z,99915.66
2023-02-07T13:36:49.384Z,99910.59
2023-02-07T13:42:21.951Z,99914.84
2023-02-07T13:47:33.980Z,99925.53
2023-02-07T13:52:45.828Z,99916.16
2023-02-07T13:58:06.334Z,99920.56
2023-02-07T14:03:29.369Z,99913.91
2023-02-07T14:08:31.459Z,99916.09
2023-02-07T14:13:35.518Z,99911.25
2023-02-07T14:18:52.982Z,99908.00
2023-02-07T14:23:58.009Z,99908.44
2023-02-07T14:29:19.228Z,99917.94
2023-02-07T14:34:24.951Z,99909.72
2023-02-07T14:39:32.147Z,99908.28
2023-02-07T14:44:39.697Z,99918.34
2023-02-07T14:49:56.893Z,99912.72
2023-02-07T14:55:15.567Z,99913.72
2023-02-07T15:00:51.195Z,99921.84
2023-02-07T15:06:03.008Z,99929.75
2023-02-07T15:11:11.760Z,99932.25
2023-02-07T15:16:19.802Z,99929.66
2023-02-07T15:21:46.319Z,99920.56
2023-02-07T15:26:58.480Z,99930.59
2023-02-07T15:32:01.523Z,99934.66
2023-02-07T15:37:23.227Z,99933.50
2023-02-07T15:42:25.362Z,99937.28
2023-02-07T15:47:33.895Z,99929.50
2023-02-07T15:52:44.762Z,99938.59
2023-02-07T15:57:47.469Z,99939.50
2023-02-07T16:03:22.456Z,99939.19
2023-02-07T16:08:36.660Z,99948.59
2023-02-07T16:14:03.620Z,99952.09
2023-02-07T16:19:28.470Z,99956.19
2023-02-07T16:24:37.668Z,99949.47
2023-02-07T16:29:42.029Z,99966.63
2023-02-07T16:34:58.823Z,99964.81
2023-02-07T16:40:01.154Z,99976.84
2023-02-07T16:45:03.372Z,99979.69
2023-02-07T16:50:13.481Z,99982.22
2023-02-07T16:55:20.949Z,99983.41
2023-02-07T17:00:26.099Z,99984.00
2023-02-07T17:05:28.390Z,99984.38
2023-02-07T17:10:34.243Z,99976.91
2023-02-07T17:15:36.819Z,99986.63
2023-02-07T17:20:39.929Z,99977.75
2023-02-07T17:25:44.325Z,99981.34
2023-02-07T17:30:46.454Z,99968.69
2023-02-07T17:35:48.671Z,99974.53
2023-02-07T17:40:51.658Z,99985.47
2023-02-07T17:45:53.788Z,99990.38
2023-02-07T17:50:56.989Z,99998.13
2023-02-07T17:55:59.295Z,100005.00
2023-02-07T18:01:01.338Z,100002.34
2023-02-07T18:06:03.627Z,100011.97
2023-02-07T18:11:07.375Z,100014.22
2023-02-07T18:16:14.989Z,100009.75
2023-02-07T18:21:17.824Z,100017.38
2023-02-07T18:26:20.104Z,100021.88
2023-02-07T18:31:24.971Z,100015.81
2023-02-07T18:36:30.030Z,100013.56
2023-02-07T18:41:32.065Z,100024.00
2023-02-07T18:46:34.370Z,100018.72
2023-02-07T18:51:38.251Z,100014.91
2023-02-07T18:56:41.945Z,100010.66
2023-02-07T19:01:48.135Z,100005.69
2023-02-07T19:06:51.936Z,100019.16
2023-02-07T19:11:57.487Z,100018.84
2023-02-07T19:17:00.098Z,100020.75
2023-02-07T19:22:02.177Z,100017.88
2023-02-07T19:27:05.296Z,100014.44
2023-02-07T19:32:09.588Z,100019.16
2023-02-07T19:37:11.626Z,100016.47
2023-02-07T19:42:13.848Z,100017.13
2023-02-07T19:47:15.900Z,100016.25
2023-02-07T19:52:19.662Z,100015.00
2023-02-07T19:57:22.059Z,100015.78
2023-02-07T20:02:24.806Z,100014.78
2023-02-07T20:07:26.958Z,100021.84
2023-02-07T20:12:28.967Z,100023.63
2023-02-07T20:17:31.212Z,100024.16
2023-02-07T20:22:35.037Z,100034.09
2023-02-07T20:27:37.021Z,100017.22
2023-02-07T20:32:39.076Z,100024.56
2023-02-07T20:37:41.135Z,100023.16
2023-02-07T20:42:43.354Z,100011.16
2023-02-07T20:48:54.145Z,100004.59
2023-02-07T20:53:59.321Z,100006.00
2023-02-07T20:59:01.621Z,100013.25
2023-02-07T21:04:06.253Z,100023.78
2023-02-07T21:09:09.431Z,100013.78
2023-02-07T21:14:25.736Z,100019.31
2023-02-07T21:19:28.949Z,100020.56
2023-02-07T21:24:32.075Z,100023.88
2023-02-07T21:29:36.577Z,100033.19
2023-02-07T21:34:39.394Z,100021.81
2023-02-07T21:39:41.935Z,100022.78
2023-02-07T21:44:44.432Z,100020.75
2023-02-07T21:49:47.039Z,100015.19
2023-02-07T21:54:49.628Z,100014.31
2023-02-07T21:59:53.442Z,100017.25
2023-02-07T22:04:56.315Z,100014.56
2023-02-07T22:09:58.744Z,100009.81
2023-02-07T22:15:01.344Z,100024.41
2023-02-07T22:20:04.311Z,100029.41
2023-02-07T22:25:07.438Z,100024.22
2023-02-07T22:30:10.571Z,100031.22
2023-02-07T22:35:13.251Z,100017.22
2023-02-07T22:40:15.750Z,100018.13
2023-02-07T22:45:18.178Z,100006.06
2023-02-07T22:50:21.248Z,99999.50
2023-02-07T22:55:23.979Z,100001.47
2023-02-07T23:00:26.397Z,100001.75
2023-02-07T23:05:29.120Z,100012.22
2023-02-07T23:10:31.574Z,100002.72
2023-02-07T23:15:34.060Z,100005.41
2023-02-07T23:20:36.629Z,100011.13
2023-02-07T23:25:43.941Z,100005.28
2023-02-07T23:30:46.509Z,100004.75
2023-02-07T23:35:48.996Z,99992.22
2023-02-07T23:40:52.052Z,100004.00
2023-02-07T23:45:55.003Z,100002.44
2023-02-07T23:50:58.435Z,100000.84
2023-02-07T23:56:01.211Z,99989.47
